createdAt,value
2018-02-14T00:00:00.938Z,68.94
2018-02-14T00:00:27.009Z,68.84
2018-02-14T00:00:53.103Z,69.13
2018-02-14T00:01:19.204Z,68.94
2018-02-14T00:01:45.304Z,69.41
2018-02-14T00:02:11.403Z,69.13
2018-02-14T00:02:37.501Z,69.03
2018-02-14T00:03:03.595Z,69.13
2018-02-14T00:03:29.700Z,69.41
2018-02-14T00:03:55.815Z,69.41
2018-02-14T00:04:21.911Z,69.03
2018-02-14T00:04:48.009Z,68.94
2018-02-14T00:05:14.116Z,69.13
2018-02-14T00:05:40.255Z,69.13
2018-02-14T00:06:06.305Z,69.22
2018-02-14T00:06:32.400Z,69.41
2018-02-14T00:06:58.505Z,69.22
2018-02-14T00:07:24.603Z,69.98
2018-02-14T00:07:50.704Z,69.79
2018-02-14T00:08:16.799Z,69.79
2018-02-14T00:08:42.897Z,69.89
2018-02-14T00:09:09.003Z,69.32
2018-02-14T00:09:35.120Z,69.51
2018-02-14T00:10:01.225Z,69.13
2018-02-14T00:10:27.323Z,69.13
2018-02-14T00:10:53.429Z,69.13
2018-02-14T00:11:19.522Z,69.13
2018-02-14T00:11:45.617Z,68.84
2018-02-14T00:12:11.733Z,69.51
2018-02-14T00:12:37.831Z,69.32
2018-02-14T00:13:03.930Z,69.22
2018-02-14T00:13:30.036Z,69.51
2018-02-14T00:13:56.129Z,70.26
2018-02-14T00:14:22.230Z,70.26
2018-02-14T00:14:48.328Z,70.17
2018-02-14T00:15:14.423Z,70.17
2018-02-14T00:15:40.530Z,70.17
2018-02-14T00:16:06.664Z,70.26
2018-02-14T00:16:32.764Z,70.64
2018-02-14T00:16:58.891Z,70.36
2018-02-14T00:17:24.961Z,70.36
2018-02-14T00:17:51.062Z,70.17
2018-02-14T00:18:17.152Z,70.93
2018-02-14T00:18:43.250Z,70.45
2018-02-14T00:19:09.351Z,70.07
2018-02-14T00:19:35.450Z,70.36
2018-02-14T00:20:01.544Z,69.79
2018-02-14T00:20:27.647Z,69.51
2018-02-14T00:20:53.742Z,69.89
2018-02-14T00:21:19.848Z,69.6
2018-02-14T00:21:45.940Z,69.89
2018-02-14T00:22:12.056Z,69.89
2018-02-14T00:22:38.160Z,70.07
2018-02-14T00:23:04.278Z,69.79
2018-02-14T00:23:30.375Z,70.36
2018-02-14T00:23:56.469Z,69.98
2018-02-14T00:24:22.573Z,69.85
2018-02-14T00:24:48.672Z,70.04
2018-02-14T00:25:14.769Z,70.14
2018-02-14T00:25:40.871Z,70.61
2018-02-14T00:26:06.969Z,70.61
2018-02-14T00:26:33.066Z,70.42
2018-02-14T00:26:59.162Z,70.32
2018-02-14T00:27:25.266Z,70.42
2018-02-14T00:27:51.359Z,70.61
2018-02-14T00:28:17.460Z,70.79
2018-02-14T00:28:43.561Z,71.46
2018-02-14T00:29:09.660Z,71.36
2018-02-14T00:29:35.782Z,70.89
2018-02-14T00:30:01.882Z,70.7
2018-02-14T00:30:27.979Z,71.08
2018-02-14T00:30:54.078Z,70.51
2018-02-14T00:31:20.178Z,71.08
2018-02-14T00:31:46.271Z,71.55
2018-02-14T00:32:12.374Z,71.55
2018-02-14T00:32:38.466Z,71.46
2018-02-14T00:33:04.571Z,71.17
2018-02-14T00:33:30.675Z,71.27
2018-02-14T00:33:56.774Z,71.36
2018-02-14T00:34:22.869Z,71.46
2018-02-14T00:34:48.964Z,71.36
2018-02-14T00:35:15.070Z,71.84
2018-02-14T00:35:41.170Z,71.36
2018-02-14T00:36:07.283Z,71.36
2018-02-14T00:36:33.382Z,71.65
2018-02-14T00:36:59.481Z,71.65
2018-02-14T00:37:25.610Z,71.55
2018-02-14T00:37:51.728Z,71.46
2018-02-14T00:38:17.829Z,71.74
2018-02-14T00:38:43.934Z,71.46
2018-02-14T00:39:10.027Z,71.27
2018-02-14T00:39:36.125Z,71.36
2018-02-14T00:40:02.225Z,71.36
2018-02-14T00:40:28.327Z,71.27
2018-02-14T00:40:54.423Z,71.74
2018-02-14T00:41:20.518Z,71.27
2018-02-14T00:41:46.623Z,71.17
2018-02-14T00:42:12.721Z,70.98
2018-02-14T00:42:38.825Z,70.98
2018-02-14T00:43:04.922Z,71.46
2018-02-14T00:43:31.027Z,71.65
2018-02-14T00:43:57.141Z,70.89
2018-02-14T00:44:23.252Z,71.27
2018-02-14T00:44:49.356Z,70.79
2018-02-14T00:45:15.453Z,71.74
2018-02-14T00:45:41.560Z,71.46
2018-02-14T00:46:07.669Z,71.55
2018-02-14T00:46:33.773Z,71.84
2018-02-14T00:46:59.887Z,70.89
2018-02-14T00:47:25.984Z,71.17
2018-02-14T00:47:52.083Z,70.79
2018-02-14T00:48:18.199Z,70.89
2018-02-14T00:48:44.302Z,71.27
2018-02-14T00:49:10.396Z,71.17
2018-02-14T00:49:36.499Z,70.89
2018-02-14T00:50:02.603Z,71.21
2018-02-14T00:50:28.690Z,70.83
2018-02-14T00:50:54.791Z,70.93
2018-02-14T00:51:20.893Z,70.7
2018-02-14T00:51:47.002Z,70.7
2018-02-14T00:52:13.100Z,70.42
2018-02-14T00:52:39.199Z,70.32
2018-02-14T00:53:05.298Z,70.7
2018-02-14T00:53:31.401Z,70.98
2018-02-14T00:53:57.498Z,71.27
2018-02-14T00:54:23.593Z,71.27
2018-02-14T00:54:49.694Z,71.27
2018-02-14T00:55:15.802Z,71.08
2018-02-14T00:55:41.908Z,71.36
2018-02-14T00:56:08.007Z,70.79
2018-02-14T00:56:34.106Z,70.89
2018-02-14T00:57:00.211Z,70.98
2018-02-14T00:57:26.301Z,71.46
2018-02-14T00:57:52.408Z,71.46
2018-02-14T00:58:18.530Z,71.27
2018-02-14T00:58:44.620Z,72.31
2018-02-14T00:59:10.718Z,71.84
2018-02-14T00:59:36.814Z,71.84
2018-02-14T01:00:02.917Z,71.84
2018-02-14T01:00:29.034Z,71.74
2018-02-14T01:00:55.138Z,71.74
2018-02-14T01:01:21.236Z,71.84
2018-02-14T01:01:47.362Z,71.36
2018-02-14T01:02:13.463Z,71.46
2018-02-14T01:02:39.582Z,71.55
2018-02-14T01:03:05.677Z,71.36
2018-02-14T01:03:31.781Z,71.17
2018-02-14T01:03:57.875Z,72.12
2018-02-14T01:04:23.976Z,71.74
2018-02-14T01:04:50.074Z,72.03
2018-02-14T01:05:16.174Z,71.74
2018-02-14T01:05:42.278Z,72.03
2018-02-14T01:06:08.391Z,72.12
2018-02-14T01:06:34.486Z,71.55
2018-02-14T01:07:00.590Z,71.17
2018-02-14T01:07:26.684Z,71.17
2018-02-14T01:07:52.791Z,71.36
2018-02-14T01:08:18.892Z,71.17
2018-02-14T01:08:44.985Z,71.46
2018-02-14T01:09:11.082Z,72.12
2018-02-14T01:09:37.186Z,71.65
2018-02-14T01:10:03.287Z,71.55
2018-02-14T01:10:29.401Z,71.74
2018-02-14T01:10:55.523Z,71.74
2018-02-14T01:11:21.635Z,72.12
2018-02-14T01:11:47.738Z,72.22
2018-02-14T01:12:13.837Z,72.31
2018-02-14T01:12:39.931Z,72.41
2018-02-14T01:13:06.027Z,72.12
2018-02-14T01:13:32.125Z,71.93
2018-02-14T01:13:58.228Z,72.31
2018-02-14T01:14:24.326Z,72.31
2018-02-14T01:14:50.427Z,72.31
2018-02-14T01:15:16.522Z,72.5
2018-02-14T01:15:42.630Z,72.31
2018-02-14T01:16:08.740Z,72.22
2018-02-14T01:16:34.835Z,72.6
2018-02-14T01:17:00.936Z,72.41
2018-02-14T01:17:27.054Z,72.12
2018-02-14T01:17:53.149Z,72.78
2018-02-14T01:18:19.268Z,72.12
2018-02-14T01:18:45.366Z,72.5
2018-02-14T01:19:11.472Z,72.97
2018-02-14T01:19:37.569Z,72.97
2018-02-14T01:20:03.669Z,72.97
2018-02-14T01:20:29.763Z,72.97
2018-02-14T01:20:55.866Z,73.26
2018-02-14T01:21:21.958Z,72.41
2018-02-14T01:21:48.060Z,72.78
2018-02-14T01:22:14.179Z,72.6
2018-02-14T01:22:40.272Z,72.5
2018-02-14T01:23:06.364Z,72.41
2018-02-14T01:23:32.493Z,72.5
2018-02-14T01:23:58.584Z,72.31
2018-02-14T01:24:24.678Z,72.22
2018-02-14T01:24:50.797Z,72.12
2018-02-14T01:25:16.891Z,72.6
2018-02-14T01:25:42.993Z,72.41
2018-02-14T01:26:09.092Z,72.12
2018-02-14T01:26:35.186Z,72.12
2018-02-14T01:27:01.310Z,71.93
2018-02-14T01:27:27.412Z,71.84
2018-02-14T01:27:53.523Z,72.03
2018-02-14T01:28:19.619Z,72.31
2018-02-14T01:28:45.735Z,72.6
2018-02-14T01:29:11.839Z,72.5
2018-02-14T01:29:37.936Z,72.41
2018-02-14T01:30:04.034Z,72.31
2018-02-14T01:30:30.150Z,72.03
2018-02-14T01:30:56.250Z,72.22
2018-02-14T01:31:22.362Z,72.22
2018-02-14T01:31:48.476Z,72.41
2018-02-14T01:32:14.573Z,72.5
2018-02-14T01:32:40.666Z,72.5
2018-02-14T01:33:06.769Z,72.31
2018-02-14T01:33:32.880Z,72.6
2018-02-14T01:33:58.980Z,72.31
2018-02-14T01:34:25.084Z,71.84
2018-02-14T01:34:51.183Z,71.93
2018-02-14T01:35:17.282Z,72.6
2018-02-14T01:35:43.377Z,72.12
2018-02-14T01:36:09.476Z,72.41
2018-02-14T01:36:35.573Z,72.5
2018-02-14T01:37:01.668Z,72.22
2018-02-14T01:37:27.776Z,72.41
2018-02-14T01:37:53.872Z,72.12
2018-02-14T01:38:19.977Z,72.6
2018-02-14T01:38:46.089Z,72.5
2018-02-14T01:39:12.191Z,72.6
2018-02-14T01:39:38.287Z,72.12
2018-02-14T01:40:04.385Z,72.22
2018-02-14T01:40:30.491Z,72.31
2018-02-14T01:40:56.585Z,72.5
2018-02-14T01:41:22.688Z,72.41
2018-02-14T01:41:48.785Z,72.5
2018-02-14T01:42:14.885Z,72.6
2018-02-14T01:42:40.979Z,72.41
2018-02-14T01:43:07.075Z,72.6
2018-02-14T01:43:33.196Z,73.26
2018-02-14T01:43:59.293Z,72.5
2018-02-14T01:44:25.392Z,72.41
2018-02-14T01:44:51.489Z,72.6
2018-02-14T01:45:17.591Z,72.22
2018-02-14T01:45:43.691Z,72.41
2018-02-14T01:46:09.787Z,72.22
2018-02-14T01:46:35.883Z,72.41
2018-02-14T01:47:01.987Z,72.41
2018-02-14T01:47:28.081Z,72.12
2018-02-14T01:47:54.182Z,72.31
2018-02-14T01:48:20.279Z,72.22
2018-02-14T01:48:46.375Z,72.41
2018-02-14T01:49:12.470Z,72.6
2018-02-14T01:49:38.589Z,72.6
2018-02-14T01:50:04.698Z,72.41
2018-02-14T01:50:30.789Z,72.69
2018-02-14T01:50:56.891Z,72.03
2018-02-14T01:51:22.988Z,72.31
2018-02-14T01:51:49.086Z,72.22
2018-02-14T01:52:15.180Z,72.41
2018-02-14T01:52:41.282Z,72.41
2018-02-14T01:53:07.375Z,72.41
2018-02-14T01:53:33.470Z,72.41
2018-02-14T01:53:59.566Z,72.12
2018-02-14T01:54:25.666Z,72.28
2018-02-14T01:54:51.801Z,72.18
2018-02-14T01:55:17.866Z,72.47
2018-02-14T01:55:43.967Z,73.22
2018-02-14T01:56:10.065Z,73.22
2018-02-14T01:56:36.169Z,72.97
2018-02-14T01:57:02.268Z,72.94
2018-02-14T01:57:28.363Z,72.94
2018-02-14T01:57:54.465Z,73.22
2018-02-14T01:58:20.559Z,73.69
2018-02-14T01:58:46.661Z,73.5
2018-02-14T01:59:12.761Z,73.41
2018-02-14T01:59:38.855Z,73.79
2018-02-14T02:00:04.961Z,73.79
2018-02-14T02:00:31.072Z,73.69
2018-02-14T02:00:57.170Z,73.79
2018-02-14T02:01:23.272Z,73.79
2018-02-14T02:01:49.368Z,73.69
2018-02-14T02:02:15.473Z,73.98
2018-02-14T02:02:41.566Z,73.69
2018-02-14T02:03:07.670Z,73.22
2018-02-14T02:03:33.765Z,73.13
2018-02-14T02:03:59.865Z,73.41
2018-02-14T02:04:25.966Z,73.6
2018-02-14T02:04:52.062Z,73.5
2018-02-14T02:05:18.181Z,73.6
2018-02-14T02:05:44.281Z,73.73
2018-02-14T02:06:10.376Z,73.13
2018-02-14T02:06:36.480Z,73.45
2018-02-14T02:07:02.577Z,73.73
2018-02-14T02:07:28.677Z,73.6
2018-02-14T02:07:54.791Z,73.35
2018-02-14T02:08:20.885Z,73.45
2018-02-14T02:08:46.987Z,73.64
2018-02-14T02:09:13.085Z,73.26
2018-02-14T02:09:39.178Z,73.35
2018-02-14T02:10:05.299Z,72.31
2018-02-14T02:10:31.412Z,72.56
2018-02-14T02:10:57.513Z,72.56
2018-02-14T02:11:23.608Z,73.03
2018-02-14T02:11:49.702Z,73.13
2018-02-14T02:12:15.805Z,73.22
2018-02-14T02:12:41.905Z,72.75
2018-02-14T02:13:08.000Z,72.85
2018-02-14T02:13:34.096Z,73.22
2018-02-14T02:14:00.218Z,73.5
2018-02-14T02:14:26.314Z,73.6
2018-02-14T02:14:52.433Z,73.5
2018-02-14T02:15:18.532Z,73.22
2018-02-14T02:15:44.625Z,73.32
2018-02-14T02:16:10.721Z,73.32
2018-02-14T02:16:36.822Z,73.22
2018-02-14T02:17:02.924Z,73.69
2018-02-14T02:17:29.034Z,73.13
2018-02-14T02:17:55.138Z,73.32
2018-02-14T02:18:21.231Z,73.13
2018-02-14T02:18:47.334Z,73.13
2018-02-14T02:19:13.427Z,73.6
2018-02-14T02:19:39.527Z,73.69
2018-02-14T02:20:05.632Z,73.69
2018-02-14T02:20:31.741Z,73.69
2018-02-14T02:20:57.848Z,74.17
2018-02-14T02:21:23.943Z,73.22
2018-02-14T02:21:50.043Z,73.22
2018-02-14T02:22:16.144Z,73.13
2018-02-14T02:22:42.238Z,73.22
2018-02-14T02:23:08.337Z,73.79
2018-02-14T02:23:34.432Z,73.6
2018-02-14T02:24:00.544Z,73.79
2018-02-14T02:24:26.654Z,74.26
2018-02-14T02:24:52.757Z,74.26
2018-02-14T02:25:18.856Z,73.98
2018-02-14T02:25:44.958Z,74.17
2018-02-14T02:26:11.054Z,73.6
2018-02-14T02:26:37.163Z,73.6
2018-02-14T02:27:03.252Z,73.5
2018-02-14T02:27:29.351Z,73.69
2018-02-14T02:27:55.473Z,74.17
2018-02-14T02:28:21.581Z,74.07
2018-02-14T02:28:47.700Z,74.36
2018-02-14T02:29:13.798Z,73.98
2018-02-14T02:29:39.888Z,74.45
2018-02-14T02:30:06.006Z,74.26
2018-02-14T02:30:32.108Z,73.98
2018-02-14T02:30:58.226Z,74.36
2018-02-14T02:31:24.323Z,75.02
2018-02-14T02:31:50.441Z,74.64
2018-02-14T02:32:16.573Z,74.83
2018-02-14T02:32:42.671Z,75.12
2018-02-14T02:33:08.772Z,74.55
2018-02-14T02:33:34.869Z,75.12
2018-02-14T02:34:00.972Z,74.83
2018-02-14T02:34:27.071Z,75.49
2018-02-14T02:34:53.164Z,75.21
2018-02-14T02:35:19.264Z,75.12
2018-02-14T02:35:45.365Z,75.31
2018-02-14T02:36:11.468Z,75.21
2018-02-14T02:36:37.564Z,75.4
2018-02-14T02:37:03.675Z,74.64
2018-02-14T02:37:29.778Z,75.12
2018-02-14T02:37:55.878Z,74.93
2018-02-14T02:38:21.971Z,75.21
2018-02-14T02:38:48.086Z,75.59
2018-02-14T02:39:14.169Z,75.31
2018-02-14T02:39:40.264Z,75.31
2018-02-14T02:40:06.368Z,75.31
2018-02-14T02:40:32.464Z,75.31
2018-02-14T02:40:58.566Z,75.49
2018-02-14T02:41:24.667Z,75.21
2018-02-14T02:41:50.780Z,75.21
2018-02-14T02:42:16.874Z,75.49
2018-02-14T02:42:42.977Z,75.12
2018-02-14T02:43:09.069Z,75.12
2018-02-14T02:43:35.166Z,74.83
2018-02-14T02:44:01.266Z,75.21
2018-02-14T02:44:27.362Z,74.36
2018-02-14T02:44:53.481Z,74.36
2018-02-14T02:45:19.586Z,75.02
2018-02-14T02:45:45.686Z,74.83
2018-02-14T02:46:11.786Z,74.17
2018-02-14T02:46:37.884Z,74.17
2018-02-14T02:47:03.984Z,74.17
2018-02-14T02:47:30.092Z,74.45
2018-02-14T02:47:56.192Z,74.17
2018-02-14T02:48:22.295Z,74.17
2018-02-14T02:48:48.388Z,74.17
2018-02-14T02:49:14.483Z,74.36
2018-02-14T02:49:40.584Z,74.17
2018-02-14T02:50:06.685Z,74.17
2018-02-14T02:50:32.808Z,74.17
2018-02-14T02:50:58.905Z,74.07
2018-02-14T02:51:25.000Z,74.74
2018-02-14T02:51:51.101Z,73.98
2018-02-14T02:52:17.203Z,74.26
2018-02-14T02:52:43.292Z,74.36
2018-02-14T02:53:09.408Z,74.45
2018-02-14T02:53:35.496Z,73.98
2018-02-14T02:54:01.592Z,74.07
2018-02-14T02:54:27.714Z,73.88
2018-02-14T02:54:53.823Z,74.17
2018-02-14T02:55:19.923Z,74.17
2018-02-14T02:55:46.018Z,74.26
2018-02-14T02:56:12.119Z,74.07
2018-02-14T02:56:38.213Z,73.5
2018-02-14T02:57:04.311Z,73.69
2018-02-14T02:57:30.416Z,73.88
2018-02-14T02:57:56.542Z,73.6
2018-02-14T02:58:22.661Z,73.5
2018-02-14T02:58:48.758Z,73.69
2018-02-14T02:59:14.858Z,73.79
2018-02-14T02:59:40.953Z,73.98
2018-02-14T03:00:07.055Z,73.88
2018-02-14T03:00:33.170Z,73.88
2018-02-14T03:00:59.267Z,74.07
2018-02-14T03:01:25.363Z,73.6
2018-02-14T03:01:51.464Z,74.07
2018-02-14T03:02:17.565Z,73.98
2018-02-14T03:02:43.660Z,73.79
2018-02-14T03:03:09.780Z,73.32
2018-02-14T03:03:35.893Z,73.41
2018-02-14T03:04:02.011Z,73.32
2018-02-14T03:04:28.105Z,73.98
2018-02-14T03:04:54.207Z,74.07
2018-02-14T03:05:20.299Z,73.69
2018-02-14T03:05:46.397Z,73.98
2018-02-14T03:06:12.496Z,73.88
2018-02-14T03:06:38.593Z,73.32
2018-02-14T03:07:04.714Z,73.79
2018-02-14T03:07:30.809Z,73.98
2018-02-14T03:07:56.904Z,74.17
2018-02-14T03:08:23.025Z,74.07
2018-02-14T03:08:49.138Z,73.69
2018-02-14T03:09:15.235Z,73.69
2018-02-14T03:09:41.336Z,74.36
2018-02-14T03:10:07.442Z,74.26
2018-02-14T03:10:33.550Z,74.07
2018-02-14T03:10:59.656Z,73.98
2018-02-14T03:11:25.749Z,74.17
2018-02-14T03:11:51.852Z,73.6
2018-02-14T03:12:17.964Z,73.69
2018-02-14T03:12:44.061Z,73.6
2018-02-14T03:13:10.160Z,73.13
2018-02-14T03:13:36.250Z,73.13
2018-02-14T03:14:02.352Z,73.13
2018-02-14T03:14:28.455Z,73.6
2018-02-14T03:14:54.551Z,73.69
2018-02-14T03:15:20.667Z,73.13
2018-02-14T03:15:46.767Z,73.13
2018-02-14T03:16:12.868Z,73.69
2018-02-14T03:16:38.961Z,73.98
2018-02-14T03:17:05.064Z,73.98
2018-02-14T03:17:31.164Z,73.79
2018-02-14T03:17:57.258Z,73.69
2018-02-14T03:18:23.363Z,73.13
2018-02-14T03:18:49.458Z,73.41
2018-02-14T03:19:15.561Z,73.6
2018-02-14T03:19:41.675Z,73.79
2018-02-14T03:20:07.788Z,73.32
2018-02-14T03:20:33.902Z,73.32
2018-02-14T03:21:00.006Z,73.6
2018-02-14T03:21:26.125Z,73.5
2018-02-14T03:21:52.220Z,73.41
2018-02-14T03:22:18.348Z,73.13
2018-02-14T03:22:44.419Z,72.85
2018-02-14T03:23:10.512Z,73.13
2018-02-14T03:23:36.611Z,73.13
2018-02-14T03:24:02.706Z,72.56
2018-02-14T03:24:28.809Z,72.75
2018-02-14T03:24:54.905Z,72.94
2018-02-14T03:25:21.008Z,73.69
2018-02-14T03:25:47.109Z,73.5
2018-02-14T03:26:13.203Z,73.41
2018-02-14T03:26:39.305Z,73.79
2018-02-14T03:27:05.399Z,73.88
2018-02-14T03:27:31.493Z,73.6
2018-02-14T03:27:57.591Z,73.88
2018-02-14T03:28:23.707Z,74.07
2018-02-14T03:28:49.810Z,73.98
2018-02-14T03:29:15.910Z,73.69
2018-02-14T03:29:42.021Z,73.88
2018-02-14T03:30:08.137Z,73.6
2018-02-14T03:30:34.236Z,73.69
2018-02-14T03:31:00.336Z,74.36
2018-02-14T03:31:26.433Z,74.17
2018-02-14T03:31:52.532Z,74.26
2018-02-14T03:32:18.636Z,74.07
2018-02-14T03:32:44.745Z,74.17
2018-02-14T03:33:10.841Z,73.98
2018-02-14T03:33:36.940Z,74.45
2018-02-14T03:34:03.037Z,74.07
2018-02-14T03:34:29.148Z,73.98
2018-02-14T03:34:55.246Z,75.02
2018-02-14T03:35:21.347Z,74.26
2018-02-14T03:35:47.438Z,74.83
2018-02-14T03:36:13.542Z,75.02
2018-02-14T03:36:39.636Z,74.74
2018-02-14T03:37:05.736Z,75.12
2018-02-14T03:37:31.853Z,75.4
2018-02-14T03:37:57.948Z,75.4
2018-02-14T03:38:24.066Z,75.4
2018-02-14T03:38:50.161Z,75.12
2018-02-14T03:39:16.266Z,75.4
2018-02-14T03:39:42.360Z,75.4
2018-02-14T03:40:08.464Z,75.49
2018-02-14T03:40:34.565Z,75.49
2018-02-14T03:41:00.660Z,75.21
2018-02-14T03:41:26.758Z,75.49
2018-02-14T03:41:52.855Z,75.31
2018-02-14T03:42:18.969Z,75.49
2018-02-14T03:42:45.065Z,75.78
2018-02-14T03:43:11.177Z,75.59
2018-02-14T03:43:37.280Z,75.49
2018-02-14T03:44:03.388Z,75.21
2018-02-14T03:44:29.494Z,75.59
2018-02-14T03:44:55.584Z,75.49
2018-02-14T03:45:21.686Z,75.49
2018-02-14T03:45:47.788Z,75.59
2018-02-14T03:46:13.887Z,75.49
2018-02-14T03:46:39.978Z,75.49
2018-02-14T03:47:06.082Z,75.49
2018-02-14T03:47:32.184Z,75.68
2018-02-14T03:47:58.280Z,75.59
2018-02-14T03:48:24.378Z,75.68
2018-02-14T03:48:50.483Z,76.06
2018-02-14T03:49:16.631Z,75.96
2018-02-14T03:49:42.728Z,76.06
2018-02-14T03:50:08.836Z,75.78
2018-02-14T03:50:34.940Z,76.06
2018-02-14T03:51:01.043Z,75.78
2018-02-14T03:51:27.141Z,75.87
2018-02-14T03:51:53.243Z,75.87
2018-02-14T03:52:19.335Z,76.15
2018-02-14T03:52:45.428Z,75.96
2018-02-14T03:53:11.526Z,75.96
2018-02-14T03:53:37.631Z,75.96
2018-02-14T03:54:03.721Z,76.06
2018-02-14T03:54:29.816Z,75.68
2018-02-14T03:54:55.923Z,75.59
2018-02-14T03:55:22.025Z,75.49
2018-02-14T03:55:48.126Z,75.59
2018-02-14T03:56:14.218Z,75.49
2018-02-14T03:56:40.313Z,75.4
2018-02-14T03:57:06.416Z,75.4
2018-02-14T03:57:32.511Z,75.4
2018-02-14T03:57:58.609Z,75.49
2018-02-14T03:58:24.708Z,75.31
2018-02-14T03:58:50.807Z,75.12
2018-02-14T03:59:16.900Z,75.21
2018-02-14T03:59:43.000Z,75.21
2018-02-14T04:00:09.093Z,75.49
2018-02-14T04:00:35.189Z,74.93
2018-02-14T04:01:01.292Z,75.21
2018-02-14T04:01:27.393Z,74.83
2018-02-14T04:01:53.491Z,74.83
2018-02-14T04:02:19.588Z,75.12
2018-02-14T04:02:45.709Z,75.12
2018-02-14T04:03:11.809Z,75.02
2018-02-14T04:03:37.907Z,75.12
2018-02-14T04:04:04.001Z,74.93
2018-02-14T04:04:30.103Z,74.93
2018-02-14T04:04:56.195Z,74.83
2018-02-14T04:05:22.297Z,74.93
2018-02-14T04:05:48.399Z,74.26
2018-02-14T04:06:14.493Z,74.83
2018-02-14T04:06:40.593Z,74.64
2018-02-14T04:07:06.688Z,74.64
2018-02-14T04:07:32.791Z,74.26
2018-02-14T04:07:58.900Z,74.07
2018-02-14T04:08:25.005Z,74.26
2018-02-14T04:08:51.117Z,74.36
2018-02-14T04:09:17.214Z,74.26
2018-02-14T04:09:43.320Z,74.17
2018-02-14T04:10:09.433Z,74.17
2018-02-14T04:10:35.530Z,74.36
2018-02-14T04:11:01.632Z,74.26
2018-02-14T04:11:27.725Z,74.64
2018-02-14T04:11:53.828Z,74.74
2018-02-14T04:12:19.927Z,73.98
2018-02-14T04:12:46.028Z,74.17
2018-02-14T04:13:12.121Z,74.36
2018-02-14T04:13:38.219Z,73.88
2018-02-14T04:14:04.321Z,74.17
2018-02-14T04:14:30.422Z,74.07
2018-02-14T04:14:56.522Z,74.45
2018-02-14T04:15:22.635Z,74.17
2018-02-14T04:15:48.735Z,74.74
2018-02-14T04:16:14.839Z,74.74
2018-02-14T04:16:40.956Z,74.26
2018-02-14T04:17:07.054Z,74.26
2018-02-14T04:17:33.149Z,75.12
2018-02-14T04:17:59.252Z,75.31
2018-02-14T04:18:25.346Z,75.12
2018-02-14T04:18:51.460Z,75.12
2018-02-14T04:19:17.558Z,75.21
2018-02-14T04:19:43.657Z,74.93
2018-02-14T04:20:09.768Z,74.93
2018-02-14T04:20:35.867Z,75.02
2018-02-14T04:21:01.971Z,75.12
2018-02-14T04:21:28.066Z,75.31
2018-02-14T04:21:54.170Z,75.12
2018-02-14T04:22:20.264Z,75.21
2018-02-14T04:22:46.368Z,75.12
2018-02-14T04:23:12.478Z,74.83
2018-02-14T04:23:38.595Z,75.12
2018-02-14T04:24:04.696Z,74.74
2018-02-14T04:24:30.811Z,75.02
2018-02-14T04:24:56.920Z,75.49
2018-02-14T04:25:23.023Z,75.4
2018-02-14T04:25:49.122Z,75.31
2018-02-14T04:26:15.216Z,75.31
2018-02-14T04:26:41.336Z,74.74
2018-02-14T04:27:07.471Z,75.21
2018-02-14T04:27:33.534Z,75.21
2018-02-14T04:27:59.627Z,75.4
2018-02-14T04:28:25.724Z,75.59
2018-02-14T04:28:51.826Z,75.12
2018-02-14T04:29:17.922Z,75.49
2018-02-14T04:29:44.022Z,74.83
2018-02-14T04:30:10.124Z,75.31
2018-02-14T04:30:36.218Z,74.83
2018-02-14T04:31:02.338Z,74.74
2018-02-14T04:31:28.430Z,74.83
2018-02-14T04:31:54.528Z,74.83
2018-02-14T04:32:20.629Z,74.93
2018-02-14T04:32:46.722Z,75.12
2018-02-14T04:33:12.819Z,75.02
2018-02-14T04:33:38.921Z,75.4
2018-02-14T04:34:05.029Z,75.4
2018-02-14T04:34:31.140Z,75.4
2018-02-14T04:34:57.258Z,75.12
2018-02-14T04:35:23.351Z,75.12
2018-02-14T04:35:49.443Z,75.12
2018-02-14T04:36:15.546Z,75.12
2018-02-14T04:36:41.648Z,75.49
2018-02-14T04:37:07.750Z,75.49
2018-02-14T04:37:33.843Z,75.12
2018-02-14T04:37:59.937Z,75.4
2018-02-14T04:38:26.042Z,75.49
2018-02-14T04:38:52.160Z,75.49
2018-02-14T04:39:18.251Z,74.83
2018-02-14T04:39:44.350Z,75.31
2018-02-14T04:40:10.453Z,75.49
2018-02-14T04:40:36.555Z,75.49
2018-02-14T04:41:02.651Z,75.21
2018-02-14T04:41:28.749Z,75.31
2018-02-14T04:41:54.846Z,75.49
2018-02-14T04:42:20.950Z,75.31
2018-02-14T04:42:47.048Z,75.68
2018-02-14T04:43:13.145Z,75.59
2018-02-14T04:43:39.247Z,75.4
2018-02-14T04:44:05.365Z,75.49
2018-02-14T04:44:31.459Z,75.31
2018-02-14T04:44:57.561Z,75.31
2018-02-14T04:45:23.656Z,75.59
2018-02-14T04:45:49.756Z,75.4
2018-02-14T04:46:15.855Z,75.4
2018-02-14T04:46:41.954Z,75.4
2018-02-14T04:47:08.049Z,75.49
2018-02-14T04:47:34.143Z,75.49
2018-02-14T04:48:00.264Z,75.31
2018-02-14T04:48:26.357Z,75.4
2018-02-14T04:48:52.462Z,75.21
2018-02-14T04:49:18.559Z,75.31
2018-02-14T04:49:44.655Z,75.31
2018-02-14T04:50:10.751Z,75.49
2018-02-14T04:50:36.849Z,75.21
2018-02-14T04:51:02.946Z,75.31
2018-02-14T04:51:29.046Z,75.4
2018-02-14T04:51:55.149Z,75.31
2018-02-14T04:52:21.245Z,75.68
2018-02-14T04:52:47.361Z,75.55
2018-02-14T04:53:13.453Z,75.68
2018-02-14T04:53:39.554Z,75.68
2018-02-14T04:54:05.650Z,75.59
2018-02-14T04:54:31.750Z,75.31
2018-02-14T04:54:57.853Z,75.49
2018-02-14T04:55:23.946Z,75.4
2018-02-14T04:55:50.043Z,75.31
2018-02-14T04:56:16.142Z,75.49
2018-02-14T04:56:42.235Z,75.4
2018-02-14T04:57:08.335Z,75.59
2018-02-14T04:57:34.434Z,75.59
2018-02-14T04:58:00.534Z,75.68
2018-02-14T04:58:26.631Z,75.49
2018-02-14T04:58:52.726Z,75.31
2018-02-14T04:59:18.826Z,75.4
2018-02-14T04:59:44.929Z,75.31
2018-02-14T05:00:11.027Z,75.31
2018-02-14T05:00:37.143Z,75.31
2018-02-14T05:01:03.242Z,75.49
2018-02-14T05:01:29.346Z,75.59
2018-02-14T05:01:55.439Z,75.68
2018-02-14T05:02:21.554Z,75.21
2018-02-14T05:02:47.650Z,75.02
2018-02-14T05:03:13.750Z,75.12
2018-02-14T05:03:39.845Z,75.49
2018-02-14T05:04:05.948Z,75.49
2018-02-14T05:04:32.048Z,75.49
2018-02-14T05:04:58.145Z,75.4
2018-02-14T05:05:24.254Z,75.78
2018-02-14T05:05:50.359Z,75.68
2018-02-14T05:06:16.453Z,75.21
2018-02-14T05:06:42.557Z,75.49
2018-02-14T05:07:08.660Z,75.02
2018-02-14T05:07:34.773Z,75.4
2018-02-14T05:08:00.886Z,75.49
2018-02-14T05:08:26.999Z,75.4
2018-02-14T05:08:53.096Z,75.02
2018-02-14T05:09:19.193Z,75.12
2018-02-14T05:09:45.299Z,75.21
2018-02-14T05:10:11.406Z,75.21
2018-02-14T05:10:37.508Z,75.31
2018-02-14T05:11:03.646Z,75.21
2018-02-14T05:11:29.741Z,74.74
2018-02-14T05:11:55.856Z,75.12
2018-02-14T05:12:21.960Z,75.02
2018-02-14T05:12:48.064Z,75.31
2018-02-14T05:13:14.157Z,75.02
2018-02-14T05:13:40.253Z,74.83
2018-02-14T05:14:06.347Z,75.31
2018-02-14T05:14:32.450Z,75.21
2018-02-14T05:14:58.544Z,75.31
2018-02-14T05:15:24.642Z,74.83
2018-02-14T05:15:50.739Z,75.49
2018-02-14T05:16:16.842Z,75.49
2018-02-14T05:16:42.935Z,74.83
2018-02-14T05:17:09.038Z,75.4
2018-02-14T05:17:35.132Z,75.4
2018-02-14T05:18:01.233Z,75.31
2018-02-14T05:18:27.331Z,75.49
2018-02-14T05:18:53.425Z,75.12
2018-02-14T05:19:19.528Z,74.93
2018-02-14T05:19:45.628Z,75.4
2018-02-14T05:20:11.762Z,75.02
2018-02-14T05:20:37.820Z,75.21
2018-02-14T05:21:03.933Z,75.4
2018-02-14T05:21:30.018Z,75.31
2018-02-14T05:21:56.118Z,75.49
2018-02-14T05:22:22.219Z,75.4
2018-02-14T05:22:48.319Z,75.21
2018-02-14T05:23:14.412Z,75.68
2018-02-14T05:23:40.524Z,75.4
2018-02-14T05:24:06.626Z,75.68
2018-02-14T05:24:32.738Z,75.49
2018-02-14T05:24:58.836Z,75.21
2018-02-14T05:25:24.938Z,75.4
2018-02-14T05:25:51.038Z,74.74
2018-02-14T05:26:17.136Z,75.4
2018-02-14T05:26:43.235Z,75.21
2018-02-14T05:27:09.331Z,75.21
2018-02-14T05:27:35.436Z,74.93
2018-02-14T05:28:01.530Z,75.4
2018-02-14T05:28:27.632Z,75.49
2018-02-14T05:28:53.725Z,75.49
2018-02-14T05:29:19.842Z,74.83
2018-02-14T05:29:45.943Z,75.12
2018-02-14T05:30:12.042Z,75.21
2018-02-14T05:30:38.143Z,74.83
2018-02-14T05:31:04.235Z,74.93
2018-02-14T05:31:30.339Z,75.49
2018-02-14T05:31:56.442Z,75.49
2018-02-14T05:32:22.558Z,75.02
2018-02-14T05:32:48.655Z,75.17
2018-02-14T05:33:14.751Z,75.4
2018-02-14T05:33:40.844Z,75.49
2018-02-14T05:34:06.944Z,75.4
2018-02-14T05:34:33.046Z,75.59
2018-02-14T05:34:59.140Z,75.4
2018-02-14T05:35:25.242Z,75.31
2018-02-14T05:35:51.339Z,75.59
2018-02-14T05:36:17.440Z,75.4
2018-02-14T05:36:43.535Z,75.59
2018-02-14T05:37:09.636Z,75.59